Time;durP1;ratioP1;P1;durP2;ratioP2;P2;SDS_P1;SDS_P2;PMS_P1;PMS_P2;Temp;Humidity;BMP_temperature;BMP_pressure;BME280_temperature;BME280_humidity;BME280_pressure;Samples;Min_cycle;Max_cycle;Signal;HPM_P1;HPM_P2
2022/08/15 00:02:47;;;;;;;13.20;12.10;;;20.90;99.90;;;;;;2617302;54;20126;-81
2022/08/15 00:08:39;;;;;;;12.67;11.67;;;20.90;99.90;;;;;;2617253;54;20380;-80
2022/08/15 00:14:32;;;;;;;12.57;11.37;;;20.80;99.90;;;;;;2617339;54;20437;-81
2022/08/15 00:20:19;;;;;;;11.83;10.93;;;20.90;99.90;;;;;;2617298;54;20405;-80
2022/08/15 00:26:07;;;;;;;13.07;11.87;;;20.80;99.90;;;;;;2617269;54;20146;-81
2022/08/15 00:31:56;;;;;;;12.17;11.17;;;20.80;99.90;;;;;;2616870;54;20375;-81
2022/08/15 00:34:23;;;;;;;12.37;11.27;;;20.70;99.90;;;;;;2616812;39;20895;-81
2022/08/15 00:36:50;;;;;;;12.30;11.40;;;20.70;99.90;;;;;;2617011;54;20502;-80
2022/08/15 00:42:37;;;;;;;12.73;11.73;;;20.70;99.90;;;;;;2617062;54;20416;-80
2022/08/15 00:54:33;;;;;;;11.87;10.97;;;20.70;99.90;;;;;;2617867;54;20471;-80
2022/08/15 01:00:25;;;;;;;11.90;10.93;;;20.70;99.90;;;;;;2617741;54;20401;-80
2022/08/15 01:06:13;;;;;;;13.00;11.90;;;20.90;99.90;;;;;;2618348;39;20762;-80
2022/08/15 01:18:47;;;;;;;12.40;11.40;;;21.20;91.10;;;;;;2617671;54;20374;-80
2022/08/15 01:31:07;;;;;;;10.73;9.93;;;21.20;84.80;;;;;;2617343;54;20372;-81
2022/08/15 01:34:25;;;;;;;11.37;10.57;;;21.50;74.60;;;;;;2617505;47;20442;-81
2022/08/15 01:36:51;;;;;;;12.00;10.83;;;21.20;76.40;;;;;;2617530;46;21320;-80
2022/08/15 01:42:45;;;;;;;11.97;10.80;;;21.20;76.00;;;;;;2617529;54;20154;-81
2022/08/15 01:55:15;;;;;;;10.10;9.40;;;21.30;75.10;;;;;;2618200;39;20773;-81
2022/08/15 02:01:08;;;;;;;10.27;9.50;;;21.10;77.00;;;;;;2617572;54;20368;-80
2022/08/15 02:06:59;;;;;;;9.90;9.20;;;21.60;62.10;;;;;;2617258;54;20991;-81
2022/08/15 02:12:48;;;;;;;9.90;9.10;;;21.60;57.20;;;;;;2617317;54;20563;-81
2022/08/15 02:18:36;;;;;;;11.07;10.27;;;21.40;60.70;;;;;;2617437;54;20410;-81
2022/08/15 02:24:25;;;;;;;11.60;10.60;;;21.30;73.10;;;;;;2617733;54;20118;-79
2022/08/15 02:30:15;;;;;;;10.30;9.60;;;21.10;81.00;;;;;;2617527;54;20376;-80
2022/08/15 02:36:03;;;;;;;11.50;10.50;;;21.10;81.10;;;;;;2616145;31;20818;-80
2022/08/15 02:41:51;;;;;;;10.97;10.07;;;21.10;76.00;;;;;;2615959;54;20495;-81
2022/08/15 02:44:35;;;;;;;10.20;9.40;;;21.40;59.80;;;;;;2615201;47;20384;-81
2022/08/15 02:47:01;;;;;;;9.70;8.43;;;21.40;53.60;;;;;;2617119;54;20405;-81
2022/08/15 02:52:49;;;;;;;10.37;9.57;;;22.00;35.50;;;;;;2617526;39;20597;-81
2022/08/15 02:58:36;;;;;;;10.83;8.60;;;21.70;38.20;;;;;;2616961;54;20475;-81
2022/08/15 03:04:24;;;;;;;10.70;9.63;;;21.40;41.30;;;;;;2617605;39;20634;-84
2022/08/15 03:10:11;;;;;;;9.73;9.03;;;21.40;41.30;;;;;;2617146;54;20983;-81
2022/08/15 03:15:59;;;;;;;9.10;8.40;;;21.40;37.50;;;;;;2617037;54;20147;-81
2022/08/15 03:21:48;;;;;;;9.30;8.67;;;21.50;36.00;;;;;;2617208;54;20374;-81
2022/08/15 03:27:36;;;;;;;8.53;7.93;;;21.50;33.20;;;;;;2617289;54;20367;-81
2022/08/15 03:33:23;;;;;;;9.03;8.17;;;21.40;33.40;;;;;;2617080;54;20119;-81
2022/08/15 03:39:11;;;;;;;8.27;7.57;;;21.30;34.10;;;;;;2617380;54;20412;-81
2022/08/15 03:44:58;;;;;;;10.70;8.47;;;21.40;33.40;;;;;;2616877;54;20271;-81
2022/08/15 03:47:24;;;;;;;8.40;7.70;;;21.20;38.70;;;;;;2615566;54;20525;-80
2022/08/15 03:49:50;;;;;;;9.57;8.77;;;21.10;33.30;;;;;;2616999;46;20179;-80
2022/08/15 03:55:39;;;;;;;8.40;7.60;;;21.10;37.50;;;;;;2617010;54;20379;-80
2022/08/15 04:01:30;;;;;;;8.83;8.03;;;21.10;34.60;;;;;;2617106;54;20475;-80
2022/08/15 04:07:17;;;;;;;8.50;7.30;;;21.40;30.80;;;;;;2616923;54;20447;-80
2022/08/15 04:13:07;;;;;;;7.70;6.97;;;21.20;33.10;;;;;;2617183;54;20146;-81
2022/08/15 04:18:54;;;;;;;8.07;7.40;;;21.40;31.60;;;;;;2617103;54;20375;-81
2022/08/15 04:24:41;;;;;;;8.50;7.70;;;21.30;33.10;;;;;;2617444;39;20507;-81
2022/08/15 04:30:32;;;;;;;7.67;7.17;;;21.50;29.80;;;;;;2617521;39;20516;-82
2022/08/15 04:36:20;;;;;;;9.40;7.63;;;21.70;28.90;;;;;;2617155;54;20928;-82
2022/08/15 04:42:08;;;;;;;8.17;7.47;;;21.80;27.80;;;;;;2616706;54;20371;-82
2022/08/15 04:47:57;;;;;;;11.47;7.67;;;21.70;29.40;;;;;;2616451;54;20179;-82
2022/08/15 04:53:46;;;;;;;7.47;6.90;;;21.90;27.70;;;;;;2616174;54;21057;-80
2022/08/15 04:59:34;;;;;;;10.77;7.70;;;22.00;26.30;;;;;;2617092;54;21016;-80
2022/08/15 05:05:21;;;;;;;8.67;7.87;;;21.80;28.80;;;;;;2617060;54;20161;-81
2022/08/15 05:11:13;;;;;;;8.10;7.40;;;21.90;27.70;;;;;;2618250;54;20122;-81
2022/08/15 05:17:02;;;;;;;7.70;7.10;;;22.00;27.70;;;;;;2618450;54;20395;-82
2022/08/15 05:22:58;;;;;;;13.63;7.00;;;22.00;27.00;;;;;;2617167;39;20739;-81
2022/08/15 05:32:23;;;;;;;13.77;7.70;;;22.20;25.70;;;;;;2616868;54;20379;-80
2022/08/15 05:45:02;;;;;;;8.87;7.97;;;22.50;24.10;;;;;;2617298;54;21255;-80
2022/08/15 05:54:00;;;;;;;7.47;6.97;;;22.50;23.10;;;;;;2617551;54;20522;-81
2022/08/15 06:22:36;;;;;;;7.77;7.23;;;22.70;24.90;;;;;;2616930;54;20375;-81
2022/08/15 06:47:28;;;;;;;8.40;7.77;;;23.00;23.80;;;;;;2617545;54;20397;-80
2022/08/15 07:06:17;;;;;;;7.47;6.97;;;23.00;25.10;;;;;;2617050;54;20362;-81
2022/08/15 07:12:07;;;;;;;7.20;6.60;;;23.00;24.50;;;;;;2617386;54;20377;-81
2022/08/15 07:24:17;;;;;;;7.17;6.47;;;23.10;24.60;;;;;;2618576;54;20400;-81
2022/08/15 07:36:29;;;;;;;7.00;6.50;;;23.00;25.60;;;;;;2618409;54;20475;-81
2022/08/15 07:42:20;;;;;;;7.47;6.77;;;23.10;25.20;;;;;;2617079;54;20364;-82
2022/08/15 07:48:24;;;;;;;6.60;6.10;;;23.20;26.00;;;;;;2616842;54;20522;-83
2022/08/15 07:54:40;;;;;;;10.67;6.30;;;23.30;24.60;;;;;;2616800;54;20391;-81
2022/08/15 08:00:30;;;;;;;7.40;6.77;;;23.40;24.60;;;;;;2616413;54;21427;-81
2022/08/15 08:06:30;;;;;;;6.80;6.20;;;23.40;24.70;;;;;;2616966;54;20380;-81
2022/08/15 08:19:26;;;;;;;7.90;7.20;;;23.90;23.70;;;;;;2616958;54;20476;-81
2022/08/15 08:25:38;;;;;;;8.23;7.60;;;24.10;24.30;;;;;;2616534;54;20406;-81
2022/08/15 08:31:32;;;;;;;8.97;8.27;;;24.10;24.30;;;;;;2617189;39;20863;-81
2022/08/15 08:56:48;;;;;;;15.13;10.50;;;23.70;25.30;;;;;;2616807;54;20368;-82
2022/08/15 09:15:47;;;;;;;8.00;7.50;;;24.00;24.90;;;;;;2617649;54;20382;-82
2022/08/15 09:21:34;;;;;;;8.77;8.07;;;24.20;24.90;;;;;;2617759;54;20367;-81
2022/08/15 09:34:06;;;;;;;8.47;7.87;;;24.40;25.30;;;;;;2617053;54;20574;-81
2022/08/15 09:57:16;;;;;;;13.67;8.60;;;24.70;22.70;;;;;;2617784;39;20469;-80
2022/08/15 10:09:40;;;;;;;9.33;8.50;;;25.00;22.20;;;;;;2617536;54;20455;-82
2022/08/15 10:15:41;;;;;;;9.73;8.93;;;24.90;23.80;;;;;;2617410;54;20397;-81
2022/08/15 10:21:39;;;;;;;10.93;8.90;;;24.90;22.90;;;;;;2617246;54;20387;-82
2022/08/15 10:27:29;;;;;;;9.43;8.60;;;25.60;24.40;;;;;;2617252;54;20530;-81
2022/08/15 10:33:26;;;;;;;9.43;7.70;;;25.50;20.30;;;;;;2617061;46;20670;-80
2022/08/15 10:53:04;;;;;;;10.57;9.00;;;25.40;20.50;;;;;;2617627;54;20398;-82
2022/08/15 11:15:23;;;;;;;8.97;8.10;;;25.50;22.50;;;;;;2617686;54;20367;-81
2022/08/15 11:27:40;;;;;;;8.33;7.60;;;26.50;14.90;;;;;;2617727;54;20365;-81
2022/08/15 11:39:46;;;;;;;9.70;8.80;;;25.60;17.70;;;;;;2617488;54;20360;-83
2022/08/15 11:45:38;;;;;;;8.40;7.70;;;26.90;15.40;;;;;;2617529;54;20397;-83
2022/08/15 11:57:44;;;;;;;8.40;7.70;;;26.60;17.60;;;;;;2617371;54;20372;-83
2022/08/15 12:03:35;;;;;;;9.80;8.90;;;26.50;18.20;;;;;;2617001;54;20397;-82
2022/08/15 12:09:26;;;;;;;10.10;8.70;;;25.00;23.00;;;;;;2616032;54;20419;-82
2022/08/15 12:15:19;;;;;;;8.80;8.00;;;25.40;23.10;;;;;;2617082;54;21024;-82
2022/08/15 12:21:12;;;;;;;9.13;8.43;;;25.30;23.20;;;;;;2617065;54;20406;-82
2022/08/15 12:27:01;;;;;;;10.47;9.10;;;25.00;26.10;;;;;;2618312;39;20839;-81
2022/08/15 12:32:48;;;;;;;7.83;7.30;;;25.30;26.00;;;;;;2618814;54;20958;-82
2022/08/15 12:38:36;;;;;;;9.30;8.40;;;24.80;26.20;;;;;;2617055;54;20453;-83
2022/08/15 12:44:28;;;;;;;9.97;9.17;;;25.60;27.70;;;;;;2617586;54;20402;-83
2022/08/15 12:50:16;;;;;;;11.20;9.47;;;25.30;26.20;;;;;;2617821;54;20381;-81
2022/08/15 12:56:03;;;;;;;9.80;9.00;;;25.80;25.30;;;;;;2618327;54;20119;-80
2022/08/15 13:01:50;;;;;;;9.80;8.83;;;25.30;26.50;;;;;;2617617;54;20522;-82
2022/08/15 13:07:38;;;;;;;9.27;8.47;;;24.90;28.40;;;;;;2617584;54;20706;-82
2022/08/15 13:10:04;;;;;;;10.83;9.43;;;24.60;28.70;;;;;;2616943;54;22020;-82
2022/08/15 13:12:30;;;;;;;10.53;8.27;;;24.80;28.80;;;;;;2616126;46;20180;-82
2022/08/15 13:18:23;;;;;;;13.07;9.53;;;24.50;30.80;;;;;;2617763;46;20254;-82
2022/08/15 13:27:32;;;;;;;9.93;9.17;;;24.80;35.20;;;;;;2617758;54;20374;-83
2022/08/15 13:33:20;;;;;;;9.37;8.40;;;24.80;33.00;;;;;;2617516;54;20921;-81
2022/08/15 13:45:21;;;;;;;10.90;9.80;;;24.60;36.10;;;;;;2617511;54;20399;-83
2022/08/15 13:51:19;;;;;;;8.87;7.97;;;24.60;35.90;;;;;;2617509;54;20406;-82
2022/08/15 13:57:07;;;;;;;9.40;8.60;;;24.60;35.10;;;;;;2617524;54;20943;-83
2022/08/15 14:02:54;;;;;;;8.50;7.83;;;24.80;32.20;;;;;;2617250;39;20531;-82
2022/08/15 14:08:45;;;;;;;9.37;8.77;;;24.70;30.80;;;;;;2617294;54;20260;-82
2022/08/15 14:14:32;;;;;;;9.47;8.73;;;24.60;30.10;;;;;;2615212;54;20434;-82
2022/08/15 14:20:21;;;;;;;9.90;9.10;;;24.90;30.00;;;;;;2616038;54;20183;-82
2022/08/15 14:26:08;;;;;;;9.80;8.13;;;24.70;30.80;;;;;;2617137;54;20395;-82
2022/08/15 14:31:56;;;;;;;8.13;7.40;;;24.50;29.40;;;;;;2617183;54;20387;-81
2022/08/15 14:37:47;;;;;;;9.47;8.57;;;24.80;29.50;;;;;;2617040;54;20410;-82
2022/08/15 14:43:35;;;;;;;8.10;7.43;;;24.60;26.90;;;;;;2617406;54;20390;-82
2022/08/15 14:49:22;;;;;;;8.47;7.87;;;24.60;24.50;;;;;;2617046;54;20403;-82
2022/08/15 14:55:10;;;;;;;9.37;8.47;;;25.50;18.80;;;;;;2617240;54;20191;-82
2022/08/15 14:57:36;;;;;;;8.33;7.73;;;26.40;19.00;;;;;;2617778;39;20802;-82
2022/08/15 15:00:07;;;;;;;9.80;8.90;;;26.50;18.10;;;;;;2617283;54;20516;-82
2022/08/15 15:05:55;;;;;;;8.93;8.20;;;27.80;12.10;;;;;;2616899;54;20386;-82
2022/08/15 15:15:05;;;;;;;8.70;7.80;;;25.50;15.60;;;;;;2617239;54;20988;-82
2022/08/15 15:20:57;;;;;;;9.47;8.60;;;26.40;14.60;;;;;;2617306;54;20407;-82
2022/08/15 15:23:25;;;;;;;8.60;8.07;;;26.40;16.20;;;;;;2615821;46;20964;-82
2022/08/15 15:29:20;;;;;;;9.40;8.60;;;26.20;16.20;;;;;;2620778;38;20791;-78
2022/08/15 15:35:11;;;;;;;9.33;8.57;;;26.20;17.30;;;;;;2620075;54;20569;-77
2022/08/15 15:41:01;;;;;;;9.60;8.63;;;25.40;17.10;;;;;;2619740;54;20390;-77
2022/08/15 15:46:52;;;;;;;11.60;9.10;;;25.80;17.90;;;;;;2620589;38;20796;-77
2022/08/15 15:52:41;;;;;;;9.27;8.57;;;25.80;18.90;;;;;;2619999;54;20386;-77
2022/08/15 15:58:29;;;;;;;10.47;9.30;;;25.60;18.80;;;;;;2620026;54;20411;-77
2022/08/15 16:04:17;;;;;;;8.90;8.33;;;25.20;18.50;;;;;;2619955;54;20210;-78
2022/08/15 16:16:40;;;;;;;9.30;8.70;;;26.10;17.70;;;;;;2619487;54;20365;-77
2022/08/15 16:22:49;;;;;;;8.80;8.10;;;26.10;16.90;;;;;;2619910;54;20983;-77
2022/08/15 16:32:46;;;;;;;9.50;8.87;;;27.00;12.40;;;;;;2618559;54;20367;-78
2022/08/15 16:44:52;;;;;;;9.87;8.87;;;26.30;15.70;;;;;;2615074;54;20838;-75
2022/08/15 16:50:57;;;;;;;9.50;8.67;;;25.30;18.70;;;;;;2615778;54;20430;-85
2022/08/15 16:54:19;;;;;;;9.47;8.30;;;25.40;19.10;;;;;;2616018;54;20419;-80
2022/08/15 17:00:16;;;;;;;9.67;8.97;;;25.40;20.90;;;;;;2616420;54;20418;-84
2022/08/15 17:35:09;;;;;;;9.43;8.57;;;24.80;23.60;;;;;;2618537;54;20384;-85
2022/08/15 17:41:02;;;;;;;9.40;8.50;;;24.80;23.60;;;;;;2618176;54;20375;-85
2022/08/15 17:46:56;;;;;;;9.40;8.60;;;24.80;23.30;;;;;;2617801;54;20371;-86
2022/08/15 17:52:52;;;;;;;9.23;8.53;;;24.70;23.40;;;;;;2617791;54;20458;-85
2022/08/15 18:05:34;;;;;;;9.93;9.03;;;24.50;23.80;;;;;;2616118;54;20413;-83
2022/08/15 18:17:36;;;;;;;9.53;8.73;;;24.50;24.30;;;;;;2616238;54;20403;-85
2022/08/15 18:23:27;;;;;;;12.97;9.20;;;24.40;25.40;;;;;;2615921;54;20132;-81
2022/08/15 18:29:18;;;;;;;11.47;10.57;;;24.20;27.30;;;;;;2616614;54;20396;-83
2022/08/15 18:41:29;;;;;;;9.60;8.90;;;24.10;26.70;;;;;;2617288;54;20384;-84
2022/08/15 18:47:29;;;;;;;12.13;9.50;;;24.00;27.90;;;;;;2617621;54;20896;-84
2022/08/15 18:53:21;;;;;;;9.17;8.57;;;24.00;27.60;;;;;;2617084;54;20423;-81
2022/08/15 19:05:43;;;;;;;9.93;9.03;;;23.60;30.20;;;;;;2616994;54;20407;-85
2022/08/15 19:11:37;;;;;;;10.13;9.17;;;23.40;37.60;;;;;;2616597;54;20391;-85
2022/08/15 19:30:33;;;;;;;9.73;8.80;;;23.50;29.10;;;;;;2616538;54;20387;-85
2022/08/15 20:02:53;;;;;;;8.70;8.00;;;23.00;30.80;;;;;;2615304;39;20938;-84
2022/08/15 20:44:52;;;;;;;8.43;7.83;;;22.80;28.60;;;;;;2614883;54;20400;-77
2022/08/15 20:50:45;;;;;;;8.13;7.30;;;22.70;28.70;;;;;;2615195;54;20382;-76
2022/08/15 20:56:35;;;;;;;8.57;8.00;;;22.70;29.30;;;;;;2614740;46;20426;-76
2022/08/15 21:20:05;;;;;;;9.13;7.90;;;22.60;30.00;;;;;;2617519;54;20387;-84
2022/08/15 21:25:57;;;;;;;8.07;7.57;;;22.50;31.00;;;;;;2617883;39;20473;-84
2022/08/15 21:42:44;;;;;;;8.87;8.27;;;22.10;38.20;;;;;;2617025;54;20407;-75
2022/08/15 21:48:42;;;;;;;8.97;8.27;;;22.10;38.00;;;;;;2616468;54;20427;-78
2022/08/15 22:07:20;;;;;;;8.13;7.47;;;22.00;40.30;;;;;;2615031;54;20532;-77
2022/08/15 22:13:13;;;;;;;8.67;8.07;;;21.90;39.80;;;;;;2614868;54;20149;-83
2022/08/15 22:19:02;;;;;;;8.40;7.70;;;21.90;40.70;;;;;;2616196;54;20470;-84
2022/08/15 22:24:51;;;;;;;8.27;7.57;;;21.80;40.70;;;;;;2615387;54;20379;-85
2022/08/15 22:34:04;;;;;;;8.17;7.63;;;21.70;44.70;;;;;;2615348;54;20989;-83
2022/08/15 22:39:51;;;;;;;9.07;7.60;;;21.60;47.20;;;;;;2615958;54;20412;-83
2022/08/15 22:45:45;;;;;;;9.17;8.40;;;21.60;49.40;;;;;;2617079;54;20407;-81
2022/08/15 22:58:01;;;;;;;8.33;7.73;;;21.40;54.80;;;;;;2616553;39;20721;-75
2022/08/15 23:03:55;;;;;;;8.37;7.67;;;21.30;58.00;;;;;;2616089;54;20391;-75
2022/08/15 23:09:44;;;;;;;8.90;8.20;;;21.20;62.10;;;;;;2616177;54;20408;-76
2022/08/15 23:15:51;;;;;;;9.80;9.00;;;21.10;65.10;;;;;;2615933;54;20380;-77
2022/08/15 23:21:39;;;;;;;10.10;9.20;;;20.90;70.80;;;;;;2616221;54;20508;-78
2022/08/15 23:27:30;;;;;;;9.60;8.87;;;20.70;75.40;;;;;;2616638;54;20406;-80
2022/08/15 23:33:19;;;;;;;9.20;8.50;;;20.70;79.00;;;;;;2616561;54;20383;-80
2022/08/15 23:39:12;;;;;;;9.83;9.10;;;20.50;85.80;;;;;;2616713;54;20379;-76
2022/08/15 23:44:59;;;;;;;8.87;8.03;;;20.70;86.10;;;;;;2615887;54;20395;-76
2022/08/15 23:50:47;;;;;;;10.70;9.90;;;20.40;91.10;;;;;;2617286;39;20545;-76
2022/08/15 23:56:35;;;;;;;8.63;8.03;;;20.40;93.60;;;;;;2616774;54;20144;-76
